Terminal Aerodrome Forecast
Issued by NWS

Home | Current Version | Previous Version | Text Only | Print | Product List | Glossary On
Versions: 1 2 3 4 5 6 7 8 9 10 11 12 13 14 15 16 17 18
000
FTUS43 KOAX 071743
TAFSNY
TAF
KSNY 071743Z 0718/0818 33028G37KT P6SM SCT200
     FM080100 33021G30KT P6SM SCT200
     FM081100 32017KT P6SM SCT250=

USA.gov is the U.S. government's official web portal to all federal, state and local government web resources and services.